createdAt,value
2017-07-19T00:03:58.029Z,1008.42
2017-07-19T00:08:54.508Z,1008.34
2017-07-19T00:13:52.394Z,1008.16
2017-07-19T00:18:49.348Z,1008.23
2017-07-19T00:23:45.459Z,1008.08
2017-07-19T00:28:42.360Z,1008.06
2017-07-19T00:33:38.043Z,1007.96
2017-07-19T00:38:35.096Z,1007.94
2017-07-19T00:43:32.221Z,1008.01
2017-07-19T00:48:28.071Z,1007.88
2017-07-19T00:53:24.010Z,1007.86
2017-07-19T00:58:21.001Z,1007.78
2017-07-19T01:03:17.008Z,1007.78
2017-07-19T01:08:13.464Z,1007.69
2017-07-19T01:13:09.369Z,1007.66
2017-07-19T01:18:05.570Z,1007.58
2017-07-19T01:23:04.623Z,1007.52
2017-07-19T01:28:00.788Z,1007.53
2017-07-19T01:32:57.723Z,1007.46
2017-07-19T01:37:56.393Z,1007.31
2017-07-19T01:42:58.195Z,1007.29
2017-07-19T01:47:52.844Z,1007.28
2017-07-19T01:52:48.864Z,1007.32
2017-07-19T01:57:44.767Z,1007.32
2017-07-19T02:02:42.001Z,1007.19
2017-07-19T02:07:37.678Z,1007.28
2017-07-19T02:12:33.842Z,1007.16
2017-07-19T02:17:30.964Z,1007.08
2017-07-19T02:22:28.199Z,1007.12
2017-07-19T02:27:23.648Z,1007.07
2017-07-19T02:32:19.584Z,1007.03
2017-07-19T02:37:15.562Z,1007.04
2017-07-19T02:42:11.676Z,1007.03
2017-07-19T02:47:08.499Z,1006.97
2017-07-19T02:52:04.475Z,1006.95
2017-07-19T02:57:00.399Z,1006.81
2017-07-19T03:01:56.258Z,1006.75
2017-07-19T03:06:52.772Z,1006.80
2017-07-19T03:11:48.450Z,1006.69
2017-07-19T03:16:45.039Z,1006.73
2017-07-19T03:21:41.027Z,1006.69
2017-07-19T03:26:36.937Z,1006.69
2017-07-19T03:31:33.829Z,1006.70
2017-07-19T03:41:31.984Z,1006.74
2017-07-19T03:46:28.257Z,1006.71
2017-07-19T03:51:24.038Z,1006.67
2017-07-19T03:56:20.266Z,1006.69
2017-07-19T04:01:16.401Z,1006.71
2017-07-19T04:06:12.348Z,1006.65
2017-07-19T04:11:08.388Z,1006.57
2017-07-19T04:16:04.838Z,1006.56
2017-07-19T04:21:03.121Z,1006.59
2017-07-19T04:25:58.891Z,1006.57
2017-07-19T04:30:55.308Z,1006.46
2017-07-19T04:35:51.376Z,1006.55
2017-07-19T04:40:47.945Z,1006.56
2017-07-19T04:45:45.160Z,1006.50
2017-07-19T04:50:42.166Z,1006.57
2017-07-19T04:55:38.506Z,1006.47
2017-07-19T05:00:35.867Z,1006.49
2017-07-19T05:05:33.042Z,1006.47
2017-07-19T05:10:30.439Z,1006.38
2017-07-19T05:15:27.540Z,1006.44
2017-07-19T05:20:27.819Z,1006.39
2017-07-19T05:25:23.114Z,1006.34
2017-07-19T05:30:18.904Z,1006.34
2017-07-19T05:35:14.873Z,1006.30
2017-07-19T05:40:11.086Z,1006.41
2017-07-19T05:45:07.242Z,1006.38
2017-07-19T05:50:03.369Z,1006.35
2017-07-19T05:54:59.744Z,1006.23
2017-07-19T05:59:56.860Z,1006.17
2017-07-19T06:04:52.391Z,1006.25
2017-07-19T06:09:48.476Z,1006.16
2017-07-19T06:14:44.597Z,1006.18
2017-07-19T06:19:41.868Z,1006.10
2017-07-19T06:24:38.338Z,1006.06
2017-07-19T06:29:35.167Z,1006.08
2017-07-19T06:34:31.310Z,1006.01
2017-07-19T06:39:29.238Z,1005.98
2017-07-19T06:44:26.076Z,1006.05
2017-07-19T06:49:22.906Z,1005.89
2017-07-19T06:54:18.827Z,1005.89
2017-07-19T06:59:16.147Z,1005.77
2017-07-19T07:04:11.713Z,1005.50
2017-07-19T07:09:07.892Z,1005.48
2017-07-19T07:14:05.086Z,1005.30
2017-07-19T07:19:02.929Z,1005.27
2017-07-19T07:23:59.072Z,1005.26
2017-07-19T07:28:55.214Z,1005.17
2017-07-19T07:33:51.841Z,1005.20
2017-07-19T07:38:48.316Z,1005.21
2017-07-19T07:43:45.311Z,1005.20
2017-07-19T07:48:41.202Z,1005.21
2017-07-19T07:53:38.581Z,1005.06
2017-07-19T07:58:35.412Z,1005.05
2017-07-19T08:03:33.142Z,1004.93
2017-07-19T08:08:31.749Z,1004.98
2017-07-19T08:13:28.323Z,1005.03
2017-07-19T08:18:25.988Z,1005.06
2017-07-19T08:23:22.930Z,1004.95
2017-07-19T08:28:20.165Z,1004.87
2017-07-19T08:33:18.060Z,1004.60
2017-07-19T08:38:14.223Z,1004.65
2017-07-19T08:43:10.706Z,1004.73
2017-07-19T08:48:06.738Z,1004.66
2017-07-19T08:53:01.982Z,1004.70
2017-07-19T08:57:58.731Z,1004.65
2017-07-19T09:02:56.103Z,1004.65
2017-07-19T09:07:52.958Z,1004.51
2017-07-19T09:12:49.971Z,1004.64
2017-07-19T09:17:48.235Z,1004.70
2017-07-19T09:22:45.823Z,1004.56
2017-07-19T09:27:41.204Z,1004.50
2017-07-19T09:32:39.228Z,1004.44
2017-07-19T09:37:35.360Z,1004.39
2017-07-19T09:42:33.902Z,1004.40
2017-07-19T09:47:30.931Z,1004.17
2017-07-19T09:52:27.076Z,1004.30
2017-07-19T09:57:24.040Z,1004.26
2017-07-19T10:02:20.850Z,1004.27
2017-07-19T10:07:17.508Z,1004.39
2017-07-19T10:12:13.734Z,1004.21
2017-07-19T10:17:10.474Z,1004.18
2017-07-19T10:22:07.189Z,1004.25
2017-07-19T10:27:05.905Z,1004.13
2017-07-19T10:32:02.119Z,1004.01
2017-07-19T10:36:58.703Z,1003.94
2017-07-19T10:41:57.480Z,1003.94
2017-07-19T10:46:53.393Z,1003.85
2017-07-19T10:51:49.857Z,1003.79
2017-07-19T10:56:47.776Z,1003.81
2017-07-19T11:01:44.061Z,1003.71
2017-07-19T11:06:40.557Z,1003.55
2017-07-19T11:11:36.835Z,1003.34
2017-07-19T11:16:33.514Z,1003.30
2017-07-19T11:21:30.240Z,1003.15
2017-07-19T11:26:27.989Z,1002.99
2017-07-19T11:31:24.341Z,1002.91
2017-07-19T11:36:20.867Z,1002.94
2017-07-19T11:41:17.513Z,1002.72
2017-07-19T11:46:14.150Z,1002.66
2017-07-19T11:51:09.788Z,1002.59
2017-07-19T11:56:03.934Z,1002.54
2017-07-19T12:00:58.512Z,1002.56
2017-07-19T12:05:54.063Z,1002.69
2017-07-19T12:10:51.032Z,1002.63
2017-07-19T12:15:48.400Z,1002.61
2017-07-19T12:20:45.750Z,1002.63
2017-07-19T12:25:44.560Z,1002.50
2017-07-19T12:30:40.906Z,1002.49
2017-07-19T12:35:36.439Z,1002.35
2017-07-19T12:40:32.523Z,1002.39
2017-07-19T12:45:29.152Z,1002.28
2017-07-19T12:50:25.931Z,1002.12
2017-07-19T12:55:21.466Z,1002.12
2017-07-19T13:00:16.877Z,1002.15
2017-07-19T13:05:13.049Z,1002.20
2017-07-19T13:10:09.692Z,1002.07
2017-07-19T13:15:08.066Z,1001.99
2017-07-19T13:20:03.667Z,1001.80
2017-07-19T13:25:00.329Z,1001.77
2017-07-19T13:29:57.300Z,1001.69
2017-07-19T13:34:54.457Z,1001.60
2017-07-19T13:39:53.382Z,1001.50
2017-07-19T13:44:48.606Z,1001.41
2017-07-19T13:49:44.797Z,1001.46
2017-07-19T13:54:42.934Z,1001.29
2017-07-19T13:59:39.067Z,1001.25
2017-07-19T14:04:35.524Z,1001.12
2017-07-19T14:09:31.090Z,1001.25
2017-07-19T14:14:26.494Z,1001.21
2017-07-19T14:19:23.451Z,1001.13
2017-07-19T14:24:18.929Z,1001.24
2017-07-19T14:29:14.888Z,1001.22
2017-07-19T14:34:11.101Z,1001.25
2017-07-19T14:39:08.219Z,1001.24
2017-07-19T14:44:03.662Z,1001.33
2017-07-19T14:48:59.510Z,1001.44
2017-07-19T14:53:55.372Z,1001.48
2017-07-19T14:58:51.433Z,1001.67
2017-07-19T15:03:47.251Z,1001.60
2017-07-19T15:08:43.311Z,1001.56
2017-07-19T15:13:40.082Z,1001.51
2017-07-19T15:18:36.517Z,1001.57
2017-07-19T15:23:32.087Z,1001.68
2017-07-19T15:28:28.068Z,1001.95
2017-07-19T15:33:24.675Z,1002.59
2017-07-19T15:38:21.914Z,1002.82
2017-07-19T15:43:16.557Z,1003.01
2017-07-19T15:48:11.857Z,1003.51
2017-07-19T15:53:07.312Z,1003.54
2017-07-19T15:58:02.978Z,1003.37
2017-07-19T16:02:57.899Z,1003.12
2017-07-19T16:07:54.245Z,1003.22
2017-07-19T16:12:50.484Z,1003.64
2017-07-19T16:17:45.630Z,1003.76
2017-07-19T16:22:42.273Z,1003.86
2017-07-19T16:27:38.637Z,1004.00
2017-07-19T16:32:34.893Z,1004.04
2017-07-19T16:37:30.475Z,1003.81
2017-07-19T16:42:26.129Z,1003.70
2017-07-19T16:47:21.853Z,1003.45
2017-07-19T16:52:18.445Z,1003.14
2017-07-19T16:57:16.384Z,1002.93
2017-07-19T17:02:11.968Z,1002.60
2017-07-19T17:07:09.276Z,1002.56
2017-07-19T17:12:06.205Z,1002.43
2017-07-19T17:17:02.480Z,1002.32
2017-07-19T17:21:58.626Z,1002.14
2017-07-19T17:26:54.878Z,1001.90
2017-07-19T17:31:51.871Z,1001.91
2017-07-19T17:36:47.941Z,1002.16
2017-07-19T17:41:44.016Z,1002.16
2017-07-19T17:46:41.478Z,1002.30
2017-07-19T17:51:37.356Z,1002.38
2017-07-19T17:56:33.720Z,1002.46
2017-07-19T18:01:29.824Z,1002.37
2017-07-19T18:06:25.791Z,1002.40
2017-07-19T18:11:22.419Z,1002.41
2017-07-19T18:16:18.822Z,1002.46
2017-07-19T18:21:16.359Z,1002.42
2017-07-19T18:26:12.061Z,1002.62
2017-07-19T18:31:09.037Z,1002.63
2017-07-19T18:36:04.587Z,1002.69
2017-07-19T18:41:00.188Z,1002.73
2017-07-19T18:45:56.283Z,1002.77
2017-07-19T18:50:52.931Z,1002.85
2017-07-19T18:55:48.659Z,1002.81
2017-07-19T19:00:44.645Z,1002.77
2017-07-19T19:05:42.533Z,1002.80
2017-07-19T19:10:39.238Z,1002.72
2017-07-19T19:15:34.926Z,1002.77
2017-07-19T19:20:31.234Z,1002.84
2017-07-19T19:25:26.998Z,1002.74
2017-07-19T19:30:22.793Z,1002.91
2017-07-19T19:35:19.374Z,1002.94
2017-07-19T19:40:16.845Z,1002.80
2017-07-19T19:45:12.200Z,1002.73
2017-07-19T19:50:08.458Z,1002.79
2017-07-19T19:55:05.465Z,1002.71
2017-07-19T20:00:01.196Z,1002.71
2017-07-19T20:04:59.331Z,1002.79
2017-07-19T20:09:54.559Z,1002.69
2017-07-19T20:14:50.273Z,1002.70
2017-07-19T20:19:46.867Z,1002.68
2017-07-19T20:24:43.390Z,1002.58
2017-07-19T20:29:38.974Z,1002.63
2017-07-19T20:34:35.823Z,1002.70
2017-07-19T20:39:31.461Z,1002.64
2017-07-19T20:44:28.392Z,1002.71
2017-07-19T20:49:24.505Z,1002.83
2017-07-19T20:54:21.360Z,1002.82
2017-07-19T20:59:17.566Z,1002.96
2017-07-19T21:04:15.147Z,1002.98
2017-07-19T21:09:11.739Z,1003.01
2017-07-19T21:14:08.702Z,1002.94
2017-07-19T21:19:04.436Z,1003.06
2017-07-19T21:24:00.788Z,1003.10
2017-07-19T21:28:57.575Z,1003.01
2017-07-19T21:33:53.621Z,1003.03
2017-07-19T21:38:50.658Z,1003.06
2017-07-19T21:43:46.394Z,1002.89
2017-07-19T21:48:42.972Z,1002.95
2017-07-19T21:53:39.836Z,1002.90
2017-07-19T21:58:35.546Z,1002.94
2017-07-19T22:03:31.896Z,1002.94
2017-07-19T22:08:27.656Z,1002.91
2017-07-19T22:13:23.828Z,1003.02
2017-07-19T22:18:20.818Z,1002.90
2017-07-19T22:23:18.320Z,1002.84
2017-07-19T22:28:14.578Z,1002.75
2017-07-19T22:33:11.304Z,1002.70
2017-07-19T22:38:08.391Z,1002.60
2017-07-19T22:43:05.028Z,1002.57
2017-07-19T22:48:02.050Z,1002.55
2017-07-19T22:52:57.893Z,1002.59
2017-07-19T22:57:54.031Z,1002.59
2017-07-19T23:02:50.716Z,1002.57
2017-07-19T23:07:46.744Z,1002.66
2017-07-19T23:12:44.844Z,1002.56
2017-07-19T23:17:41.263Z,1002.62
2017-07-19T23:22:37.063Z,1002.59
2017-07-19T23:27:32.906Z,1002.62
2017-07-19T23:32:28.789Z,1002.67
2017-07-19T23:37:27.891Z,1002.68
2017-07-19T23:42:23.506Z,1002.83
2017-07-19T23:47:20.924Z,1002.94
2017-07-19T23:52:17.656Z,1002.92
2017-07-19T23:57:14.334Z,1002.94
